Cid, North Carolina
Current Conditions -  °F | °C
As of 10:35 AM on Thursday 27 Nov 2014 (Local Time) from KEXX Reporting Station
Overcast Overcast  
Wind Chill: 37°   Ceiling: 6500
Heat Index: 40°   Visibility: 10mi
Dew Point: 38°   Wind: 5mph
Humidity: 91%   Direction: 350°N
Pressure: 30.08"   Gusts: NA
Location:  35.7974°N, 80.2541°W
Report Text: KEXX 271535Z AUTO 35004KT 10SM SCT010 BKN065 OVC080 05/03 A3008 RMK AO2 T00460033
Loading
Personal Weather Stations






























Interactive Weather Map New forecast layout! Learn more

10-Day Weather Forecast

Advertisements
Track Severe Weather on mobile